sensor_id;sensor_type;location;lat;lon;timestamp;P1;durP1;ratioP1;P2;durP2;ratioP2
38843;SDS011;24596;48.080;8.362;2023-04-12T00:02:05;8.63;;;1.95;;
38843;SDS011;24596;48.080;8.362;2023-04-12T00:04:30;8.48;;;1.70;;
38843;SDS011;24596;48.080;8.362;2023-04-12T00:06:58;7.28;;;1.70;;
38843;SDS011;24596;48.080;8.362;2023-04-12T00:09:25;12.00;;;1.88;;
38843;SDS011;24596;48.080;8.362;2023-04-12T00:11:54;5.95;;;1.83;;
38843;SDS011;24596;48.080;8.362;2023-04-12T00:14:21;6.45;;;1.80;;
38843;SDS011;24596;48.080;8.362;2023-04-12T00:16:46;7.32;;;1.75;;
38843;SDS011;24596;48.080;8.362;2023-04-12T00:19:11;7.22;;;2.33;;
38843;SDS011;24596;48.080;8.362;2023-04-12T00:21:36;5.57;;;1.35;;
38843;SDS011;24596;48.080;8.362;2023-04-12T00:24:01;5.10;;;1.38;;
38843;SDS011;24596;48.080;8.362;2023-04-12T00:26:26;4.82;;;1.50;;
38843;SDS011;24596;48.080;8.362;2023-04-12T00:28:52;5.78;;;1.63;;
38843;SDS011;24596;48.080;8.362;2023-04-12T00:31:17;8.20;;;1.80;;
38843;SDS011;24596;48.080;8.362;2023-04-12T00:33:42;3.22;;;1.25;;
38843;SDS011;24596;48.080;8.362;2023-04-12T00:36:07;6.65;;;2.15;;
38843;SDS011;24596;48.080;8.362;2023-04-12T00:38:33;5.28;;;1.48;;
38843;SDS011;24596;48.080;8.362;2023-04-12T00:40:58;6.65;;;1.75;;
38843;SDS011;24596;48.080;8.362;2023-04-12T00:43:24;6.50;;;1.48;;
38843;SDS011;24596;48.080;8.362;2023-04-12T00:45:51;6.53;;;1.58;;
38843;SDS011;24596;48.080;8.362;2023-04-12T00:48:17;5.75;;;1.23;;
38843;SDS011;24596;48.080;8.362;2023-04-12T00:50:43;8.88;;;1.63;;
38843;SDS011;24596;48.080;8.362;2023-04-12T00:53:14;6.65;;;1.40;;
38843;SDS011;24596;48.080;8.362;2023-04-12T00:55:40;3.15;;;1.00;;
38843;SDS011;24596;48.080;8.362;2023-04-12T00:58:06;3.22;;;1.25;;
38843;SDS011;24596;48.080;8.362;2023-04-12T01:00:32;4.22;;;1.23;;
38843;SDS011;24596;48.080;8.362;2023-04-12T01:02:57;5.28;;;1.95;;
38843;SDS011;24596;48.080;8.362;2023-04-12T01:05:26;4.28;;;1.20;;
38843;SDS011;24596;48.080;8.362;2023-04-12T01:15:28;8.23;;;1.42;;
38843;SDS011;24596;48.080;8.362;2023-04-12T01:17:58;5.07;;;1.30;;
38843;SDS011;24596;48.080;8.362;2023-04-12T01:20:27;5.20;;;1.23;;
38843;SDS011;24596;48.080;8.362;2023-04-12T01:28:04;4.68;;;1.42;;
38843;SDS011;24596;48.080;8.362;2023-04-12T01:30:30;4.10;;;1.10;;
38843;SDS011;24596;48.080;8.362;2023-04-12T01:32:58;3.35;;;1.05;;
38843;SDS011;24596;48.080;8.362;2023-04-12T01:35:28;3.78;;;1.23;;
38843;SDS011;24596;48.080;8.362;2023-04-12T01:37:55;3.28;;;1.10;;
38843;SDS011;24596;48.080;8.362;2023-04-12T01:40:21;5.22;;;1.10;;
38843;SDS011;24596;48.080;8.362;2023-04-12T01:42:46;4.88;;;1.17;;
38843;SDS011;24596;48.080;8.362;2023-04-12T01:45:11;3.88;;;1.10;;
38843;SDS011;24596;48.080;8.362;2023-04-12T01:47:37;4.05;;;1.27;;
38843;SDS011;24596;48.080;8.362;2023-04-12T01:52:27;4.43;;;1.13;;
38843;SDS011;24596;48.080;8.362;2023-04-12T01:54:54;3.53;;;1.30;;
38843;SDS011;24596;48.080;8.362;2023-04-12T01:57:21;4.53;;;1.30;;
38843;SDS011;24596;48.080;8.362;2023-04-12T01:59:47;3.78;;;1.10;;
38843;SDS011;24596;48.080;8.362;2023-04-12T02:02:14;3.67;;;0.90;;
38843;SDS011;24596;48.080;8.362;2023-04-12T02:04:40;3.50;;;1.20;;
38843;SDS011;24596;48.080;8.362;2023-04-12T02:07:05;4.10;;;0.93;;
38843;SDS011;24596;48.080;8.362;2023-04-12T02:09:35;5.20;;;1.70;;
38843;SDS011;24596;48.080;8.362;2023-04-12T02:12:00;4.45;;;1.35;;
38843;SDS011;24596;48.080;8.362;2023-04-12T02:14:25;2.83;;;1.10;;
38843;SDS011;24596;48.080;8.362;2023-04-12T02:16:51;3.92;;;1.30;;
38843;SDS011;24596;48.080;8.362;2023-04-12T02:19:18;5.35;;;1.90;;
38843;SDS011;24596;48.080;8.362;2023-04-12T02:21:44;3.88;;;1.30;;
38843;SDS011;24596;48.080;8.362;2023-04-12T02:24:09;4.68;;;1.35;;
38843;SDS011;24596;48.080;8.362;2023-04-12T02:26:35;4.38;;;1.30;;
38843;SDS011;24596;48.080;8.362;2023-04-12T02:29:01;7.38;;;1.40;;
38843;SDS011;24596;48.080;8.362;2023-04-12T02:31:26;4.97;;;1.35;;
38843;SDS011;24596;48.080;8.362;2023-04-12T02:33:52;3.00;;;1.08;;
38843;SDS011;24596;48.080;8.362;2023-04-12T02:36:17;2.47;;;1.05;;
38843;SDS011;24596;48.080;8.362;2023-04-12T02:38:42;4.22;;;1.15;;
38843;SDS011;24596;48.080;8.362;2023-04-12T02:41:07;5.30;;;1.30;;
38843;SDS011;24596;48.080;8.362;2023-04-12T02:43:32;4.20;;;1.40;;
38843;SDS011;24596;48.080;8.362;2023-04-12T02:45:58;5.10;;;1.40;;
38843;SDS011;24596;48.080;8.362;2023-04-12T02:48:23;3.70;;;1.30;;
38843;SDS011;24596;48.080;8.362;2023-04-12T02:50:48;3.45;;;1.30;;
38843;SDS011;24596;48.080;8.362;2023-04-12T02:53:14;4.10;;;1.40;;
38843;SDS011;24596;48.080;8.362;2023-04-12T02:55:39;3.42;;;1.08;;
38843;SDS011;24596;48.080;8.362;2023-04-12T02:58:04;5.05;;;1.38;;
38843;SDS011;24596;48.080;8.362;2023-04-12T03:00:30;8.27;;;1.50;;
38843;SDS011;24596;48.080;8.362;2023-04-12T03:02:55;4.65;;;1.30;;
38843;SDS011;24596;48.080;8.362;2023-04-12T03:05:22;5.10;;;1.40;;
38843;SDS011;24596;48.080;8.362;2023-04-12T03:07:47;6.38;;;1.40;;
38843;SDS011;24596;48.080;8.362;2023-04-12T03:10:13;4.25;;;1.40;;
38843;SDS011;24596;48.080;8.362;2023-04-12T03:12:38;2.67;;;1.25;;
38843;SDS011;24596;48.080;8.362;2023-04-12T03:15:03;3.35;;;1.17;;
38843;SDS011;24596;48.080;8.362;2023-04-12T03:17:28;3.13;;;1.20;;
38843;SDS011;24596;48.080;8.362;2023-04-12T03:19:54;3.10;;;1.10;;
38843;SDS011;24596;48.080;8.362;2023-04-12T03:22:19;8.80;;;1.17;;
38843;SDS011;24596;48.080;8.362;2023-04-12T03:24:44;6.22;;;1.40;;
38843;SDS011;24596;48.080;8.362;2023-04-12T03:27:10;8.27;;;1.48;;
38843;SDS011;24596;48.080;8.362;2023-04-12T03:29:35;1.70;;;0.90;;
38843;SDS011;24596;48.080;8.362;2023-04-12T03:32:00;4.05;;;1.42;;
38843;SDS011;24596;48.080;8.362;2023-04-12T03:34:26;7.00;;;1.30;;
38843;SDS011;24596;48.080;8.362;2023-04-12T03:36:56;2.15;;;1.17;;
38843;SDS011;24596;48.080;8.362;2023-04-12T03:39:21;5.70;;;1.60;;
38843;SDS011;24596;48.080;8.362;2023-04-12T03:41:46;5.30;;;1.45;;
38843;SDS011;24596;48.080;8.362;2023-04-12T03:44:12;3.70;;;1.45;;
38843;SDS011;24596;48.080;8.362;2023-04-12T03:46:37;5.68;;;1.30;;
38843;SDS011;24596;48.080;8.362;2023-04-12T03:49:02;4.63;;;1.60;;
38843;SDS011;24596;48.080;8.362;2023-04-12T03:51:27;6.28;;;1.40;;
38843;SDS011;24596;48.080;8.362;2023-04-12T03:53:54;4.35;;;1.30;;
38843;SDS011;24596;48.080;8.362;2023-04-12T03:56:19;5.35;;;1.42;;
38843;SDS011;24596;48.080;8.362;2023-04-12T03:58:45;3.53;;;1.20;;
38843;SDS011;24596;48.080;8.362;2023-04-12T04:01:10;4.55;;;1.15;;
38843;SDS011;24596;48.080;8.362;2023-04-12T04:03:38;3.30;;;1.27;;
38843;SDS011;24596;48.080;8.362;2023-04-12T04:06:04;4.57;;;1.40;;
38843;SDS011;24596;48.080;8.362;2023-04-12T04:08:30;6.95;;;1.40;;
38843;SDS011;24596;48.080;8.362;2023-04-12T04:10:57;3.50;;;1.48;;
38843;SDS011;24596;48.080;8.362;2023-04-12T04:13:22;4.47;;;1.42;;
38843;SDS011;24596;48.080;8.362;2023-04-12T04:15:49;5.82;;;1.30;;
38843;SDS011;24596;48.080;8.362;2023-04-12T04:18:14;2.95;;;1.17;;
38843;SDS011;24596;48.080;8.362;2023-04-12T04:20:40;3.45;;;1.20;;
38843;SDS011;24596;48.080;8.362;2023-04-12T04:23:05;4.65;;;1.50;;
38843;SDS011;24596;48.080;8.362;2023-04-12T04:25:30;5.97;;;1.42;;
38843;SDS011;24596;48.080;8.362;2023-04-12T04:27:56;4.90;;;1.20;;
38843;SDS011;24596;48.080;8.362;2023-04-12T04:30:23;5.32;;;1.65;;
38843;SDS011;24596;48.080;8.362;2023-04-12T04:32:48;5.07;;;1.25;;
38843;SDS011;24596;48.080;8.362;2023-04-12T04:35:14;4.10;;;1.48;;
38843;SDS011;24596;48.080;8.362;2023-04-12T04:37:39;7.13;;;1.50;;
38843;SDS011;24596;48.080;8.362;2023-04-12T04:40:05;3.70;;;1.38;;
38843;SDS011;24596;48.080;8.362;2023-04-12T04:42:35;5.28;;;1.67;;
38843;SDS011;24596;48.080;8.362;2023-04-12T04:45:02;6.13;;;1.30;;
38843;SDS011;24596;48.080;8.362;2023-04-12T04:47:36;4.97;;;1.90;;
38843;SDS011;24596;48.080;8.362;2023-04-12T04:50:01;2.83;;;1.30;;
38843;SDS011;24596;48.080;8.362;2023-04-12T04:52:27;5.15;;;1.63;;
38843;SDS011;24596;48.080;8.362;2023-04-12T04:54:52;4.10;;;1.33;;
38843;SDS011;24596;48.080;8.362;2023-04-12T04:57:21;3.83;;;1.60;;
38843;SDS011;24596;48.080;8.362;2023-04-12T04:59:46;6.20;;;1.50;;
38843;SDS011;24596;48.080;8.362;2023-04-12T05:02:11;5.93;;;1.52;;
38843;SDS011;24596;48.080;8.362;2023-04-12T05:04:37;4.35;;;1.20;;
38843;SDS011;24596;48.080;8.362;2023-04-12T05:07:02;3.65;;;1.48;;
38843;SDS011;24596;48.080;8.362;2023-04-12T05:09:27;5.22;;;1.50;;
38843;SDS011;24596;48.080;8.362;2023-04-12T05:11:52;7.43;;;1.52;;
38843;SDS011;24596;48.080;8.362;2023-04-12T05:14:17;5.00;;;1.70;;
38843;SDS011;24596;48.080;8.362;2023-04-12T05:16:43;6.72;;;1.40;;
38843;SDS011;24596;48.080;8.362;2023-04-12T05:19:08;5.82;;;1.40;;
38843;SDS011;24596;48.080;8.362;2023-04-12T05:21:33;2.72;;;1.25;;
38843;SDS011;24596;48.080;8.362;2023-04-12T05:23:58;9.60;;;1.90;;
38843;SDS011;24596;48.080;8.362;2023-04-12T05:26:24;4.32;;;1.42;;
38843;SDS011;24596;48.080;8.362;2023-04-12T05:28:49;7.25;;;2.30;;
38843;SDS011;24596;48.080;8.362;2023-04-12T05:31:15;3.65;;;1.45;;
38843;SDS011;24596;48.080;8.362;2023-04-12T05:33:40;4.53;;;1.60;;
38843;SDS011;24596;48.080;8.362;2023-04-12T05:36:05;4.68;;;1.65;;
38843;SDS011;24596;48.080;8.362;2023-04-12T05:38:30;4.55;;;1.48;;
38843;SDS011;24596;48.080;8.362;2023-04-12T05:40:56;8.10;;;1.45;;
38843;SDS011;24596;48.080;8.362;2023-04-12T05:43:21;6.03;;;1.30;;
38843;SDS011;24596;48.080;8.362;2023-04-12T05:45:46;3.65;;;1.40;;
38843;SDS011;24596;48.080;8.362;2023-04-12T05:48:11;4.40;;;1.50;;
38843;SDS011;24596;48.080;8.362;2023-04-12T05:50:37;5.47;;;1.67;;
38843;SDS011;24596;48.080;8.362;2023-04-12T05:53:02;4.20;;;1.48;;
38843;SDS011;24596;48.080;8.362;2023-04-12T05:55:28;3.80;;;1.70;;
38843;SDS011;24596;48.080;8.362;2023-04-12T05:57:53;5.35;;;1.80;;
38843;SDS011;24596;48.080;8.362;2023-04-12T06:00:19;7.35;;;2.28;;
38843;SDS011;24596;48.080;8.362;2023-04-12T06:02:45;4.70;;;1.88;;
38843;SDS011;24596;48.080;8.362;2023-04-12T06:05:11;5.85;;;2.10;;
38843;SDS011;24596;48.080;8.362;2023-04-12T06:07:40;6.95;;;2.42;;
38843;SDS011;24596;48.080;8.362;2023-04-12T06:10:12;4.43;;;2.13;;
38843;SDS011;24596;48.080;8.362;2023-04-12T06:12:38;5.20;;;2.17;;
38843;SDS011;24596;48.080;8.362;2023-04-12T06:15:03;5.32;;;1.70;;
38843;SDS011;24596;48.080;8.362;2023-04-12T06:17:29;5.65;;;2.03;;
38843;SDS011;24596;48.080;8.362;2023-04-12T06:19:54;6.13;;;2.25;;
38843;SDS011;24596;48.080;8.362;2023-04-12T06:22:19;5.43;;;2.50;;
38843;SDS011;24596;48.080;8.362;2023-04-12T06:24:45;3.92;;;1.77;;
38843;SDS011;24596;48.080;8.362;2023-04-12T06:27:10;3.83;;;1.85;;
38843;SDS011;24596;48.080;8.362;2023-04-12T06:29:35;4.95;;;1.70;;
38843;SDS011;24596;48.080;8.362;2023-04-12T06:32:00;5.35;;;2.22;;
38843;SDS011;24596;48.080;8.362;2023-04-12T06:34:25;5.15;;;2.22;;
38843;SDS011;24596;48.080;8.362;2023-04-12T06:36:51;4.60;;;2.30;;
38843;SDS011;24596;48.080;8.362;2023-04-12T06:39:16;3.95;;;2.10;;
38843;SDS011;24596;48.080;8.362;2023-04-12T06:41:41;4.60;;;2.28;;
38843;SDS011;24596;48.080;8.362;2023-04-12T06:44:11;6.40;;;2.63;;
38843;SDS011;24596;48.080;8.362;2023-04-12T06:46:36;6.13;;;2.65;;
38843;SDS011;24596;48.080;8.362;2023-04-12T06:49:02;6.03;;;2.40;;
38843;SDS011;24596;48.080;8.362;2023-04-12T06:51:27;6.18;;;1.90;;
38843;SDS011;24596;48.080;8.362;2023-04-12T06:53:52;5.10;;;2.05;;
38843;SDS011;24596;48.080;8.362;2023-04-12T06:56:17;6.18;;;2.08;;
38843;SDS011;24596;48.080;8.362;2023-04-12T06:58:43;3.72;;;1.88;;
38843;SDS011;24596;48.080;8.362;2023-04-12T07:01:08;5.60;;;2.08;;
38843;SDS011;24596;48.080;8.362;2023-04-12T07:03:39;5.32;;;2.25;;
38843;SDS011;24596;48.080;8.362;2023-04-12T07:06:05;5.00;;;2.08;;
38843;SDS011;24596;48.080;8.362;2023-04-12T07:08:36;5.50;;;2.00;;
38843;SDS011;24596;48.080;8.362;2023-04-12T07:11:02;4.68;;;2.15;;
38843;SDS011;24596;48.080;8.362;2023-04-12T07:13:27;5.47;;;2.40;;
38843;SDS011;24596;48.080;8.362;2023-04-12T07:15:52;4.80;;;2.05;;
38843;SDS011;24596;48.080;8.362;2023-04-12T07:18:21;5.60;;;1.88;;
38843;SDS011;24596;48.080;8.362;2023-04-12T07:20:47;5.20;;;2.38;;
38843;SDS011;24596;48.080;8.362;2023-04-12T07:23:12;5.63;;;2.22;;
38843;SDS011;24596;48.080;8.362;2023-04-12T07:25:38;6.03;;;2.10;;
38843;SDS011;24596;48.080;8.362;2023-04-12T07:28:03;5.80;;;2.30;;
38843;SDS011;24596;48.080;8.362;2023-04-12T07:30:28;5.53;;;2.63;;
38843;SDS011;24596;48.080;8.362;2023-04-12T07:32:53;5.07;;;2.28;;
38843;SDS011;24596;48.080;8.362;2023-04-12T07:35:19;6.93;;;3.45;;
38843;SDS011;24596;48.080;8.362;2023-04-12T07:37:44;5.05;;;2.50;;
38843;SDS011;24596;48.080;8.362;2023-04-12T07:40:10;5.47;;;2.63;;
38843;SDS011;24596;48.080;8.362;2023-04-12T07:42:35;4.10;;;2.13;;
38843;SDS011;24596;48.080;8.362;2023-04-12T07:45:00;9.60;;;2.67;;
38843;SDS011;24596;48.080;8.362;2023-04-12T07:47:25;4.72;;;2.10;;
38843;SDS011;24596;48.080;8.362;2023-04-12T07:49:51;6.22;;;2.55;;
38843;SDS011;24596;48.080;8.362;2023-04-12T07:52:16;5.30;;;2.60;;
38843;SDS011;24596;48.080;8.362;2023-04-12T07:54:41;5.35;;;2.78;;
38843;SDS011;24596;48.080;8.362;2023-04-12T07:57:06;6.13;;;2.40;;
38843;SDS011;24596;48.080;8.362;2023-04-12T07:59:32;5.35;;;2.50;;
38843;SDS011;24596;48.080;8.362;2023-04-12T08:01:58;5.57;;;2.40;;
38843;SDS011;24596;48.080;8.362;2023-04-12T08:04:24;5.20;;;2.22;;
38843;SDS011;24596;48.080;8.362;2023-04-12T08:06:49;6.82;;;2.70;;
38843;SDS011;24596;48.080;8.362;2023-04-12T08:09:15;5.53;;;2.47;;
38843;SDS011;24596;48.080;8.362;2023-04-12T08:11:40;5.43;;;2.55;;
38843;SDS011;24596;48.080;8.362;2023-04-12T08:14:06;4.03;;;1.80;;
38843;SDS011;24596;48.080;8.362;2023-04-12T08:16:31;4.65;;;1.88;;
38843;SDS011;24596;48.080;8.362;2023-04-12T08:18:57;3.92;;;1.63;;
38843;SDS011;24596;48.080;8.362;2023-04-12T08:21:22;7.07;;;2.10;;
38843;SDS011;24596;48.080;8.362;2023-04-12T08:23:47;6.90;;;1.48;;
38843;SDS011;24596;48.080;8.362;2023-04-12T08:26:15;7.70;;;1.50;;
38843;SDS011;24596;48.080;8.362;2023-04-12T08:28:40;4.28;;;2.03;;
38843;SDS011;24596;48.080;8.362;2023-04-12T08:31:05;6.75;;;1.92;;
38843;SDS011;24596;48.080;8.362;2023-04-12T08:33:31;3.80;;;1.30;;
38843;SDS011;24596;48.080;8.362;2023-04-12T08:35:56;6.30;;;1.48;;
38843;SDS011;24596;48.080;8.362;2023-04-12T08:38:24;12.02;;;1.83;;
38843;SDS011;24596;48.080;8.362;2023-04-12T08:40:50;5.90;;;1.40;;
38843;SDS011;24596;48.080;8.362;2023-04-12T08:43:15;4.63;;;1.23;;
38843;SDS011;24596;48.080;8.362;2023-04-12T08:45:41;7.50;;;1.50;;
38843;SDS011;24596;48.080;8.362;2023-04-12T08:48:07;8.57;;;1.70;;
38843;SDS011;24596;48.080;8.362;2023-04-12T08:50:32;7.35;;;1.50;;
38843;SDS011;24596;48.080;8.362;2023-04-12T08:52:58;4.82;;;1.35;;
38843;SDS011;24596;48.080;8.362;2023-04-12T08:55:23;4.68;;;1.65;;
38843;SDS011;24596;48.080;8.362;2023-04-12T08:57:48;5.57;;;1.90;;
38843;SDS011;24596;48.080;8.362;2023-04-12T09:00:15;4.93;;;1.63;;
38843;SDS011;24596;48.080;8.362;2023-04-12T09:02:41;9.07;;;2.28;;
38843;SDS011;24596;48.080;8.362;2023-04-12T09:05:11;1.83;;;0.65;;
38843;SDS011;24596;48.080;8.362;2023-04-12T09:07:38;4.50;;;1.25;;
38843;SDS011;24596;48.080;8.362;2023-04-12T09:10:03;5.88;;;1.60;;
38843;SDS011;24596;48.080;8.362;2023-04-12T09:12:29;7.80;;;2.08;;
38843;SDS011;24596;48.080;8.362;2023-04-12T09:15:15;8.15;;;1.88;;
38843;SDS011;24596;48.080;8.362;2023-04-12T09:17:41;8.43;;;2.15;;
38843;SDS011;24596;48.080;8.362;2023-04-12T09:22:43;5.88;;;1.50;;
38843;SDS011;24596;48.080;8.362;2023-04-12T09:25:13;6.43;;;1.60;;
38843;SDS011;24596;48.080;8.362;2023-04-12T09:28:16;8.48;;;1.60;;
38843;SDS011;24596;48.080;8.362;2023-04-12T09:30:32;8.60;;;1.75;;
38843;SDS011;24596;48.080;8.362;2023-04-12T09:33:11;6.05;;;1.90;;
38843;SDS011;24596;48.080;8.362;2023-04-12T09:35:37;5.28;;;1.42;;
38843;SDS011;24596;48.080;8.362;2023-04-12T09:38:08;6.53;;;1.70;;
38843;SDS011;24596;48.080;8.362;2023-04-12T09:40:34;5.93;;;2.13;;
38843;SDS011;24596;48.080;8.362;2023-04-12T09:43:00;5.88;;;1.60;;
38843;SDS011;24596;48.080;8.362;2023-04-12T09:45:26;3.08;;;1.52;;
38843;SDS011;24596;48.080;8.362;2023-04-12T09:47:52;5.57;;;1.33;;
38843;SDS011;24596;48.080;8.362;2023-04-12T09:50:22;3.58;;;1.33;;
38843;SDS011;24596;48.080;8.362;2023-04-12T09:52:48;7.18;;;2.00;;
38843;SDS011;24596;48.080;8.362;2023-04-12T09:55:13;5.13;;;1.70;;
38843;SDS011;24596;48.080;8.362;2023-04-12T09:57:40;6.10;;;1.63;;
38843;SDS011;24596;48.080;8.362;2023-04-12T10:00:06;4.00;;;1.50;;
38843;SDS011;24596;48.080;8.362;2023-04-12T10:02:36;3.83;;;1.58;;
38843;SDS011;24596;48.080;8.362;2023-04-12T10:05:01;6.50;;;1.30;;
38843;SDS011;24596;48.080;8.362;2023-04-12T10:07:27;4.82;;;1.77;;
38843;SDS011;24596;48.080;8.362;2023-04-12T10:09:52;4.95;;;1.58;;
38843;SDS011;24596;48.080;8.362;2023-04-12T10:12:18;6.05;;;1.20;;
38843;SDS011;24596;48.080;8.362;2023-04-12T10:14:43;4.68;;;1.55;;
38843;SDS011;24596;48.080;8.362;2023-04-12T10:17:10;5.00;;;1.60;;
38843;SDS011;24596;48.080;8.362;2023-04-12T10:19:37;2.30;;;1.13;;
38843;SDS011;24596;48.080;8.362;2023-04-12T10:22:03;5.03;;;1.40;;
38843;SDS011;24596;48.080;8.362;2023-04-12T10:24:28;3.90;;;1.60;;
38843;SDS011;24596;48.080;8.362;2023-04-12T10:26:54;4.85;;;1.10;;
38843;SDS011;24596;48.080;8.362;2023-04-12T10:31:49;5.53;;;1.45;;
38843;SDS011;24596;48.080;8.362;2023-04-12T10:34:15;3.90;;;1.20;;
38843;SDS011;24596;48.080;8.362;2023-04-12T10:39:40;4.13;;;1.20;;
38843;SDS011;24596;48.080;8.362;2023-04-12T10:42:28;3.60;;;0.88;;
38843;SDS011;24596;48.080;8.362;2023-04-12T10:50:22;4.75;;;1.20;;
38843;SDS011;24596;48.080;8.362;2023-04-12T10:55:34;2.70;;;1.13;;
38843;SDS011;24596;48.080;8.362;2023-04-12T10:57:59;4.30;;;1.30;;
38843;SDS011;24596;48.080;8.362;2023-04-12T11:00:25;4.35;;;1.40;;
38843;SDS011;24596;48.080;8.362;2023-04-12T11:03:10;3.92;;;1.00;;
38843;SDS011;24596;48.080;8.362;2023-04-12T11:05:55;3.65;;;1.05;;
38843;SDS011;24596;48.080;8.362;2023-04-12T11:08:21;2.35;;;1.23;;
38843;SDS011;24596;48.080;8.362;2023-04-12T11:10:47;3.40;;;1.10;;
38843;SDS011;24596;48.080;8.362;2023-04-12T11:13:13;2.80;;;1.08;;
38843;SDS011;24596;48.080;8.362;2023-04-12T11:15:38;5.30;;;1.10;;
38843;SDS011;24596;48.080;8.362;2023-04-12T11:18:04;4.82;;;1.23;;
38843;SDS011;24596;48.080;8.362;2023-04-12T11:20:30;3.90;;;1.00;;
38843;SDS011;24596;48.080;8.362;2023-04-12T11:22:55;2.45;;;0.80;;
38843;SDS011;24596;48.080;8.362;2023-04-12T11:25:21;3.40;;;1.23;;
38843;SDS011;24596;48.080;8.362;2023-04-12T11:27:50;2.63;;;0.90;;
38843;SDS011;24596;48.080;8.362;2023-04-12T11:30:16;5.53;;;1.17;;
38843;SDS011;24596;48.080;8.362;2023-04-12T11:32:43;3.45;;;1.15;;
38843;SDS011;24596;48.080;8.362;2023-04-12T11:35:08;5.28;;;1.20;;
38843;SDS011;24596;48.080;8.362;2023-04-12T11:37:33;3.75;;;1.38;;
38843;SDS011;24596;48.080;8.362;2023-04-12T11:39:59;2.28;;;0.85;;
38843;SDS011;24596;48.080;8.362;2023-04-12T11:42:25;3.60;;;1.60;;
38843;SDS011;24596;48.080;8.362;2023-04-12T11:44:51;5.97;;;1.50;;
38843;SDS011;24596;48.080;8.362;2023-04-12T11:47:19;4.97;;;1.38;;
38843;SDS011;24596;48.080;8.362;2023-04-12T11:49:48;4.32;;;1.25;;
38843;SDS011;24596;48.080;8.362;2023-04-12T11:52:14;3.30;;;0.90;;
38843;SDS011;24596;48.080;8.362;2023-04-12T11:54:43;4.07;;;1.08;;
38843;SDS011;24596;48.080;8.362;2023-04-12T11:57:10;3.03;;;1.00;;
38843;SDS011;24596;48.080;8.362;2023-04-12T11:59:35;2.40;;;0.80;;
38843;SDS011;24596;48.080;8.362;2023-04-12T12:02:01;3.88;;;1.10;;
38843;SDS011;24596;48.080;8.362;2023-04-12T12:04:27;2.67;;;0.70;;
38843;SDS011;24596;48.080;8.362;2023-04-12T12:06:54;3.22;;;0.90;;
38843;SDS011;24596;48.080;8.362;2023-04-12T12:09:19;4.65;;;1.00;;
38843;SDS011;24596;48.080;8.362;2023-04-12T12:11:45;4.65;;;0.65;;
38843;SDS011;24596;48.080;8.362;2023-04-12T12:14:10;1.75;;;0.70;;
38843;SDS011;24596;48.080;8.362;2023-04-12T12:16:35;1.85;;;0.77;;
38843;SDS011;24596;48.080;8.362;2023-04-12T12:19:03;1.55;;;0.68;;
38843;SDS011;24596;48.080;8.362;2023-04-12T12:21:28;14.20;;;2.63;;
38843;SDS011;24596;48.080;8.362;2023-04-12T12:23:55;4.50;;;0.75;;
38843;SDS011;24596;48.080;8.362;2023-04-12T12:26:21;2.40;;;0.60;;
38843;SDS011;24596;48.080;8.362;2023-04-12T12:28:51;2.95;;;0.80;;
38843;SDS011;24596;48.080;8.362;2023-04-12T12:31:20;2.25;;;0.77;;
38843;SDS011;24596;48.080;8.362;2023-04-12T12:33:45;3.97;;;0.70;;
38843;SDS011;24596;48.080;8.362;2023-04-12T12:36:11;1.25;;;0.55;;
38843;SDS011;24596;48.080;8.362;2023-04-12T12:38:38;1.30;;;0.50;;
38843;SDS011;24596;48.080;8.362;2023-04-12T12:41:17;1.80;;;0.52;;
38843;SDS011;24596;48.080;8.362;2023-04-12T12:43:43;3.08;;;0.90;;
38843;SDS011;24596;48.080;8.362;2023-04-12T12:46:08;3.25;;;1.17;;
38843;SDS011;24596;48.080;8.362;2023-04-12T12:48:37;3.05;;;0.70;;
38843;SDS011;24596;48.080;8.362;2023-04-12T12:51:03;4.20;;;1.10;;
38843;SDS011;24596;48.080;8.362;2023-04-12T12:53:28;1.95;;;0.63;;
38843;SDS011;24596;48.080;8.362;2023-04-12T12:55:53;3.33;;;1.10;;
38843;SDS011;24596;48.080;8.362;2023-04-12T12:58:18;5.47;;;1.10;;
38843;SDS011;24596;48.080;8.362;2023-04-12T13:00:43;3.88;;;0.73;;
38843;SDS011;24596;48.080;8.362;2023-04-12T13:03:09;2.47;;;0.65;;
38843;SDS011;24596;48.080;8.362;2023-04-12T13:05:34;0.77;;;0.50;;
38843;SDS011;24596;48.080;8.362;2023-04-12T13:07:59;1.48;;;0.70;;
38843;SDS011;24596;48.080;8.362;2023-04-12T13:10:25;2.40;;;0.60;;
38843;SDS011;24596;48.080;8.362;2023-04-12T13:12:51;0.90;;;0.40;;
38843;SDS011;24596;48.080;8.362;2023-04-12T13:15:16;1.77;;;0.65;;
38843;SDS011;24596;48.080;8.362;2023-04-12T13:17:41;2.15;;;0.70;;
38843;SDS011;24596;48.080;8.362;2023-04-12T13:20:07;3.40;;;0.88;;
38843;SDS011;24596;48.080;8.362;2023-04-12T13:22:33;1.55;;;0.70;;
38843;SDS011;24596;48.080;8.362;2023-04-12T13:24:58;2.15;;;0.50;;
38843;SDS011;24596;48.080;8.362;2023-04-12T13:27:24;1.60;;;0.70;;
38843;SDS011;24596;48.080;8.362;2023-04-12T13:29:49;2.15;;;0.80;;
38843;SDS011;24596;48.080;8.362;2023-04-12T13:32:14;2.75;;;0.47;;
38843;SDS011;24596;48.080;8.362;2023-04-12T13:34:42;1.90;;;0.50;;
38843;SDS011;24596;48.080;8.362;2023-04-12T13:37:08;1.52;;;0.57;;
38843;SDS011;24596;48.080;8.362;2023-04-12T13:39:33;2.03;;;0.70;;
38843;SDS011;24596;48.080;8.362;2023-04-12T13:41:59;4.13;;;0.63;;
38843;SDS011;24596;48.080;8.362;2023-04-12T13:44:25;3.42;;;1.02;;
38843;SDS011;24596;48.080;8.362;2023-04-12T13:46:52;1.67;;;0.60;;
38843;SDS011;24596;48.080;8.362;2023-04-12T13:49:17;2.42;;;0.70;;
38843;SDS011;24596;48.080;8.362;2023-04-12T13:51:42;4.57;;;0.90;;
38843;SDS011;24596;48.080;8.362;2023-04-12T13:54:07;1.65;;;0.70;;
38843;SDS011;24596;48.080;8.362;2023-04-12T13:56:33;3.42;;;0.77;;
38843;SDS011;24596;48.080;8.362;2023-04-12T13:58:58;1.60;;;0.73;;
38843;SDS011;24596;48.080;8.362;2023-04-12T14:01:23;2.00;;;0.70;;
38843;SDS011;24596;48.080;8.362;2023-04-12T14:03:49;2.10;;;0.70;;
38843;SDS011;24596;48.080;8.362;2023-04-12T14:06:14;2.45;;;0.90;;
38843;SDS011;24596;48.080;8.362;2023-04-12T14:08:40;1.60;;;0.60;;
38843;SDS011;24596;48.080;8.362;2023-04-12T14:11:05;3.47;;;0.80;;
38843;SDS011;24596;48.080;8.362;2023-04-12T14:13:31;2.38;;;0.70;;
38843;SDS011;24596;48.080;8.362;2023-04-12T14:15:56;1.48;;;0.65;;
38843;SDS011;24596;48.080;8.362;2023-04-12T14:18:21;2.47;;;0.50;;
38843;SDS011;24596;48.080;8.362;2023-04-12T14:20:47;1.38;;;0.60;;
38843;SDS011;24596;48.080;8.362;2023-04-12T14:23:16;1.85;;;0.65;;
38843;SDS011;24596;48.080;8.362;2023-04-12T14:25:41;3.13;;;0.60;;
38843;SDS011;24596;48.080;8.362;2023-04-12T14:28:07;1.98;;;0.70;;
38843;SDS011;24596;48.080;8.362;2023-04-12T14:30:32;4.20;;;0.73;;
38843;SDS011;24596;48.080;8.362;2023-04-12T14:32:57;4.68;;;0.88;;
38843;SDS011;24596;48.080;8.362;2023-04-12T14:35:22;2.00;;;0.65;;
38843;SDS011;24596;48.080;8.362;2023-04-12T14:37:48;1.88;;;0.80;;
38843;SDS011;24596;48.080;8.362;2023-04-12T14:40:13;2.80;;;0.95;;
38843;SDS011;24596;48.080;8.362;2023-04-12T14:42:38;3.25;;;0.80;;
38843;SDS011;24596;48.080;8.362;2023-04-12T14:45:04;1.52;;;0.60;;
38843;SDS011;24596;48.080;8.362;2023-04-12T14:47:32;4.78;;;0.98;;
38843;SDS011;24596;48.080;8.362;2023-04-12T14:49:57;4.05;;;0.90;;
38843;SDS011;24596;48.080;8.362;2023-04-12T14:52:22;1.75;;;0.55;;
38843;SDS011;24596;48.080;8.362;2023-04-12T14:54:48;2.92;;;0.70;;
38843;SDS011;24596;48.080;8.362;2023-04-12T14:57:13;1.60;;;0.50;;
38843;SDS011;24596;48.080;8.362;2023-04-12T14:59:39;4.63;;;0.75;;
38843;SDS011;24596;48.080;8.362;2023-04-12T15:02:04;4.65;;;0.60;;
38843;SDS011;24596;48.080;8.362;2023-04-12T15:04:30;2.90;;;0.50;;
38843;SDS011;24596;48.080;8.362;2023-04-12T15:06:55;3.75;;;0.57;;
38843;SDS011;24596;48.080;8.362;2023-04-12T15:09:21;1.63;;;0.50;;
38843;SDS011;24596;48.080;8.362;2023-04-12T15:11:49;11.02;;;5.22;;
38843;SDS011;24596;48.080;8.362;2023-04-12T15:14:18;2.72;;;0.75;;